Fay, OK (73646)

8:21 PM CDT on July 22, 2014 (GMT -0500)
Watonga (KJWG) Elev 1549 ft | 35.86 °N, 98.42 °W | Change Station
Active Advisory: Heat Advisory

Current weather conditions updated 6 minutes ago

Clear
Clear
90 °F
Feels Like 100 °F
N
6
Wind Variable Wind from ESE

Tomorrow is forecast to be Warmer than today.

Today
High -- | Low -- °F
--% Chance of Precip.
Yesterday
High -- | Low -- °F
Precip. -- in
6:34 AM 8:47 PM
Waning Crescent, 14% visible
Pressure 30.09 in
Visibility 10.0 miles
Clouds Clear
Heat Index 100 °F
Dew Point 74 °F
Humidity 59%
Rainfall 0.00 in
Snow Depth Not available.
UV 0 out of 12
Pollen 5.00 out of 12
Air Quality Not available.
Flu Activity Not available.
METAR KJWG 230115Z AUTO 12005KT 10SM CLR 32/24 A3009 RMK AO2 T03240235

More Conditions Fewer Conditions

Pressure 30.09 in
Visibility 10.0 miles
Clouds Clear
Heat Index 100 °F
Dew Point 74 °F
Humidity 59%
Rainfall 0.00 in
Snow Depth Not available.
UV 0 out of 12
Pollen 5.00 out of 12
Air Quality Not available.
Flu Activity Not available.
METAR KJWG 230115Z AUTO 12005KT 10SM CLR 32/24 A3009 RMK AO2 T03240235

More Conditions Fewer Conditions

10-Day Weather Forecast

Almanac

Astronomy

Jul. 22, 2014 Rise Set
Actual Time 6:34 AM CDT 8:47 PM CDT
Civil Twilight 6:05 AM CDT 9:15 PM CDT
Nautical Twilight 5:30 AM CDT 9:51 PM CDT
Astronomical Twilight 4:52 AM CDT 10:29 PM CDT
Moon 3:07 AM CDT (7/22) 5:27 PM CDT (7/22)
Length of Visible Light 15h 09m
Length of Day
14h 12m
Tomorrow will be 1m 25s shorter.
Waning Crescent, 14% of the Moon is Illuminated
Today
Waning Crescent
Jul 26
New
Aug 3
First Quarter
Aug 10
Full
Aug 17
Last Quarter

Today's Extremes

State Highs State Lows

Community

WunderPhotos

Upload Photos

1,736,423 photos uploaded!

Nearby

Snow Depth

Station Depth Elevation
No new snow has been reported.

Earthquake Activity

City Distance Mag. Time & Date
Spencer, Oklahoma 74 miles 2.7 4:56 PM CDT
2014-07-18
Helena, Oklahoma 64 miles 3.2 8:41 AM CDT
2014-07-18
Guthrie, Oklahoma 76 miles 2.9 8:59 PM CDT
2014-07-17
Perry, Oklahoma 79 miles 2.8 8:37 PM CDT
2014-07-17
Minimum magnitude displayed is 2.5.

Coastal Water Temperatures

Place Temperature
No Stations Reporting

Nearby Weather Stations

Station Location Temp. Heat Index Dew Point Humidity Wind Precip. Elev Updated Type
Watonga North, Watonga, OK 90.5 °F 98 °F 72 °F 54% SE  at  0.0 mph 0.00 in / hr 1549 ft 8:21 PM CDT Rapid Fire
The MadCatter Canton Oklahoma, Canton, OK 95.2 °F 106 °F 74 °F 50% ENE  at  0.0 mph - / hr 1654 ft 8:15 PM CDT Normal
Custer City, Custer City, OK 91.9 °F 96 °F 68 °F 46% SE  at  2.0 mph 0.00 in / hr 1775 ft 8:21 PM CDT Rapid Fire
HADS NORTH CANADIAN RIVER AT DAM NEAR OK, Canton, OK 96 °F 100 °F 67 °F 39% WSW  at  0 mph 0.00 in / hr 1649 ft 7:00 PM CDT MADIS

Show More Stations Show Fewer Stations